createdAt,value
2023-04-09T00:03:34.358Z,98810.63
2023-04-09T00:06:01.689Z,98815.91
2023-04-09T00:08:28.555Z,98806.56
2023-04-09T00:10:55.692Z,98806.09
2023-04-09T00:13:31.960Z,98806.88
2023-04-09T00:16:05.780Z,98806.53
2023-04-09T00:18:34.013Z,98802.69
2023-04-09T00:21:00.848Z,98807.31
2023-04-09T00:23:27.526Z,98810.25
2023-04-09T00:25:54.275Z,98815.03
2023-04-09T00:28:21.073Z,98813.66
2023-04-09T00:30:48.029Z,98816.97
2023-04-09T00:33:14.974Z,98814.59
2023-04-09T00:35:42.044Z,98813.16
2023-04-09T00:38:09.062Z,98808.56
2023-04-09T00:40:36.030Z,98810.53
2023-04-09T00:43:03.011Z,98805.44
2023-04-09T00:45:30.044Z,98820.28
2023-04-09T00:47:56.903Z,98817.44
2023-04-09T00:50:24.362Z,98823.59
2023-04-09T00:52:52.003Z,98808.44
2023-04-09T00:55:19.229Z,98810.81
2023-04-09T00:57:47.100Z,98816.44
2023-04-09T01:00:14.502Z,98806.03
2023-04-09T01:02:42.173Z,98807.28
2023-04-09T01:05:10.081Z,98811.09
2023-04-09T01:07:39.895Z,98803.97
2023-04-09T01:10:26.959Z,98807.47
2023-04-09T01:13:18.882Z,98800.41
2023-04-09T01:15:57.293Z,98795.91
2023-04-09T01:18:40.372Z,98804.00
2023-04-09T01:21:12.178Z,98801.00
2023-04-09T01:24:04.616Z,98803.91
2023-04-09T01:26:48.440Z,98796.34
2023-04-09T01:29:18.458Z,98801.09
2023-04-09T01:31:46.907Z,98811.50
2023-04-09T01:34:15.123Z,98815.06
2023-04-09T01:36:47.831Z,98815.31
2023-04-09T01:39:14.956Z,98813.38
2023-04-09T01:41:42.663Z,98805.63
2023-04-09T01:44:12.615Z,98791.47
2023-04-09T01:46:40.690Z,98795.69
2023-04-09T01:49:07.883Z,98793.88
2023-04-09T01:51:38.380Z,98801.25
2023-04-09T01:54:05.942Z,98802.38
2023-04-09T01:56:43.542Z,98806.13
2023-04-09T01:59:11.937Z,98799.19
2023-04-09T02:01:58.488Z,98809.41
2023-04-09T02:04:37.198Z,98810.25
2023-04-09T02:07:29.925Z,98801.25
2023-04-09T02:10:01.879Z,98793.94
2023-04-09T02:12:31.777Z,98801.56
2023-04-09T02:15:01.275Z,98809.53
2023-04-09T02:17:28.466Z,98813.44
2023-04-09T02:19:55.495Z,98811.28
2023-04-09T02:22:23.092Z,98805.41
2023-04-09T02:24:50.084Z,98809.84
2023-04-09T02:27:18.043Z,98801.19
2023-04-09T02:29:45.361Z,98803.66
2023-04-09T02:32:13.435Z,98812.22
2023-04-09T02:34:40.673Z,98816.75
2023-04-09T02:37:07.573Z,98813.44
2023-04-09T02:39:34.495Z,98815.06
2023-04-09T02:42:02.329Z,98799.50
2023-04-09T02:44:29.481Z,98798.31
2023-04-09T02:46:57.267Z,98794.16
2023-04-09T02:49:24.306Z,98795.59
2023-04-09T02:51:51.610Z,98806.91
2023-04-09T02:54:18.934Z,98802.03
2023-04-09T02:56:45.841Z,98788.09
2023-04-09T02:59:12.666Z,98796.00
2023-04-09T03:01:39.933Z,98795.41
2023-04-09T03:04:07.301Z,98798.56
2023-04-09T03:06:39.141Z,98799.50
2023-04-09T03:09:06.624Z,98793.78
2023-04-09T03:11:37.333Z,98801.78
2023-04-09T03:14:05.401Z,98805.19
2023-04-09T03:16:32.609Z,98802.03
2023-04-09T03:19:02.230Z,98805.53
2023-04-09T03:21:35.258Z,98798.66
2023-04-09T03:24:02.819Z,98806.53
2023-04-09T03:26:36.264Z,98792.66
2023-04-09T03:29:06.540Z,98793.19
2023-04-09T03:31:34.355Z,98784.53
2023-04-09T03:34:01.166Z,98786.66
2023-04-09T03:36:34.501Z,98787.06
2023-04-09T03:39:03.398Z,98794.72
2023-04-09T03:41:39.486Z,98792.94
2023-04-09T03:44:11.176Z,98791.22
2023-04-09T03:46:52.492Z,98782.44
2023-04-09T03:49:19.939Z,98782.97
2023-04-09T03:51:46.699Z,98786.97
2023-04-09T03:54:13.722Z,98785.97
2023-04-09T03:56:41.482Z,98786.88
2023-04-09T03:59:11.716Z,98783.09
2023-04-09T04:01:41.575Z,98778.22
2023-04-09T04:04:09.218Z,98778.19
2023-04-09T04:06:41.361Z,98787.06
2023-04-09T04:09:26.506Z,98789.41
2023-04-09T04:12:02.453Z,98788.56
2023-04-09T04:14:47.903Z,98793.03
2023-04-09T04:17:35.567Z,98788.97
2023-04-09T04:20:06.467Z,98791.28
2023-04-09T04:22:39.421Z,98782.41
2023-04-09T04:25:07.018Z,98797.09
2023-04-09T04:27:34.082Z,98803.16
2023-04-09T04:30:02.484Z,98809.69
2023-04-09T04:32:40.600Z,98811.75
2023-04-09T04:35:11.356Z,98814.69
2023-04-09T04:37:40.607Z,98822.16
2023-04-09T04:40:13.771Z,98802.44
2023-04-09T04:42:42.764Z,98812.00
2023-04-09T04:45:14.205Z,98816.13
2023-04-09T04:47:46.426Z,98808.75
2023-04-09T04:50:15.511Z,98812.63
2023-04-09T04:53:02.965Z,98806.63
2023-04-09T04:55:42.242Z,98802.56
2023-04-09T04:58:15.340Z,98807.00
2023-04-09T05:00:47.906Z,98799.34
2023-04-09T05:03:15.389Z,98808.78
2023-04-09T05:05:59.903Z,98803.56
2023-04-09T05:08:32.055Z,98799.41
2023-04-09T05:10:59.112Z,98807.31
2023-04-09T05:13:36.396Z,98810.84
2023-04-09T05:16:07.394Z,98818.88
2023-04-09T05:18:37.350Z,98822.72
2023-04-09T05:21:04.694Z,98827.16
2023-04-09T05:23:34.599Z,98823.81
2023-04-09T05:26:01.579Z,98828.16
2023-04-09T05:28:59.055Z,98822.56
2023-04-09T05:31:26.961Z,98822.97
2023-04-09T05:33:59.384Z,98820.28
2023-04-09T05:36:37.896Z,98831.81
2023-04-09T05:39:05.119Z,98820.84
2023-04-09T05:41:34.526Z,98823.97
2023-04-09T05:44:37.088Z,98834.28
2023-04-09T05:47:10.787Z,98832.28
2023-04-09T05:50:01.104Z,98844.44
2023-04-09T05:52:28.738Z,98840.88
2023-04-09T05:54:56.379Z,98842.50
2023-04-09T05:57:31.877Z,98844.84
2023-04-09T06:00:02.470Z,98839.50
2023-04-09T06:02:31.972Z,98841.56
2023-04-09T06:05:00.561Z,98843.66
2023-04-09T06:07:27.685Z,98838.81
2023-04-09T06:09:56.487Z,98842.34
2023-04-09T06:12:23.402Z,98846.28
2023-04-09T06:14:50.443Z,98848.22
2023-04-09T06:17:17.508Z,98844.16
2023-04-09T06:19:44.459Z,98849.28
2023-04-09T06:22:11.372Z,98848.06
2023-04-09T06:24:39.440Z,98847.47
2023-04-09T06:27:08.110Z,98854.59
2023-04-09T06:29:35.098Z,98852.97
2023-04-09T06:32:02.069Z,98856.59
2023-04-09T06:34:28.957Z,98865.34
2023-04-09T06:36:56.646Z,98849.66
2023-04-09T06:39:23.711Z,98858.22
2023-04-09T06:41:50.893Z,98863.22
2023-04-09T06:44:34.746Z,98873.19
2023-04-09T06:47:02.625Z,98874.81
2023-04-09T06:49:29.587Z,98877.03
2023-04-09T06:51:56.438Z,98866.34
2023-04-09T06:54:23.104Z,98866.94
2023-04-09T06:56:49.672Z,98873.72
2023-04-09T06:59:16.996Z,98865.13
2023-04-09T07:01:44.069Z,98867.47
2023-04-09T07:04:16.522Z,98877.69
2023-04-09T07:06:44.107Z,98876.84
2023-04-09T07:09:13.132Z,98875.16
2023-04-09T07:11:40.536Z,98873.25
2023-04-09T07:14:07.943Z,98866.84
2023-04-09T07:16:35.127Z,98860.91
2023-04-09T07:19:03.823Z,98868.91
2023-04-09T07:21:32.657Z,98875.75
2023-04-09T07:23:59.650Z,98876.00
2023-04-09T07:26:29.414Z,98880.81
2023-04-09T07:28:56.271Z,98886.00
2023-04-09T07:31:23.480Z,98875.25
2023-04-09T07:33:54.157Z,98873.88
2023-04-09T07:36:21.645Z,98881.94
2023-04-09T07:38:48.920Z,98886.97
2023-04-09T07:41:16.425Z,98881.66
2023-04-09T07:43:44.283Z,98884.09
2023-04-09T07:46:11.959Z,98879.78
2023-04-09T07:48:40.428Z,98890.28
2023-04-09T07:51:08.802Z,98891.81
2023-04-09T07:53:35.984Z,98900.50
2023-04-09T07:56:03.373Z,98891.81
2023-04-09T07:58:31.034Z,98905.13
2023-04-09T08:00:59.974Z,98902.63
2023-04-09T08:03:27.717Z,98902.09
2023-04-09T08:05:54.909Z,98890.63
2023-04-09T08:08:22.551Z,98890.00
2023-04-09T08:10:49.337Z,98896.53
2023-04-09T08:13:16.522Z,98891.81
2023-04-09T08:15:43.660Z,98897.31
2023-04-09T08:18:10.663Z,98896.84
2023-04-09T08:20:38.196Z,98891.69
2023-04-09T08:23:05.013Z,98892.53
2023-04-09T08:25:32.398Z,98885.00
2023-04-09T08:27:59.270Z,98888.00
2023-04-09T08:30:26.292Z,98883.59
2023-04-09T08:32:54.207Z,98892.88
2023-04-09T08:35:21.203Z,98894.13
2023-04-09T08:37:49.037Z,98901.44
2023-04-09T08:40:15.998Z,98902.84
2023-04-09T08:42:48.623Z,98904.25
2023-04-09T08:45:15.752Z,98903.06
2023-04-09T08:47:45.680Z,98904.09
2023-04-09T08:50:14.522Z,98903.41
2023-04-09T08:52:42.774Z,98895.31
2023-04-09T08:55:12.048Z,98901.47
2023-04-09T08:57:40.092Z,98894.63
2023-04-09T09:00:09.945Z,98896.94
2023-04-09T09:02:39.430Z,98897.66
2023-04-09T09:05:09.141Z,98908.06
2023-04-09T09:07:39.065Z,98898.03
2023-04-09T09:10:07.270Z,98904.25
2023-04-09T09:12:42.017Z,98899.75
2023-04-09T09:15:28.801Z,98904.06
2023-04-09T09:18:00.952Z,98894.88
2023-04-09T09:20:28.034Z,98904.03
2023-04-09T09:22:57.034Z,98906.38
2023-04-09T09:25:25.699Z,98898.88
2023-04-09T09:27:54.261Z,98900.47
2023-04-09T09:30:22.525Z,98904.09
2023-04-09T09:33:07.144Z,98909.16
2023-04-09T09:36:09.477Z,98917.13
2023-04-09T09:38:55.279Z,98913.19
2023-04-09T09:41:23.405Z,98906.00
2023-04-09T09:43:50.903Z,98906.22
2023-04-09T09:46:17.820Z,98911.59
2023-04-09T09:48:47.996Z,98909.47
2023-04-09T09:51:15.544Z,98906.22
2023-04-09T09:53:46.608Z,98910.94
2023-04-09T09:56:18.557Z,98914.38
2023-04-09T09:59:04.332Z,98913.34
2023-04-09T10:01:31.420Z,98908.34
2023-04-09T10:04:01.530Z,98903.44
2023-04-09T10:06:30.216Z,98900.34
2023-04-09T10:08:58.366Z,98907.63
2023-04-09T10:11:25.878Z,98900.28
2023-04-09T10:13:59.700Z,98904.25
2023-04-09T10:16:28.156Z,98903.44
2023-04-09T10:18:59.895Z,98905.31
2023-04-09T10:21:47.729Z,98894.34
2023-04-09T10:24:16.086Z,98898.16
2023-04-09T10:26:45.152Z,98895.88
2023-04-09T10:29:14.695Z,98896.06
2023-04-09T10:32:06.807Z,98894.06
2023-04-09T10:34:42.837Z,98893.19
2023-04-09T10:37:15.130Z,98885.78
2023-04-09T10:39:44.790Z,98885.59
2023-04-09T10:42:25.658Z,98885.78
2023-04-09T10:45:16.952Z,98879.22
2023-04-09T10:47:44.262Z,98873.41
2023-04-09T10:50:33.312Z,98875.91
2023-04-09T10:53:00.987Z,98866.63
2023-04-09T10:55:38.406Z,98869.16
2023-04-09T10:58:13.628Z,98876.19
2023-04-09T11:00:46.079Z,98883.63
2023-04-09T11:03:31.369Z,98882.53
2023-04-09T11:06:06.103Z,98877.41
2023-04-09T11:08:34.215Z,98871.91
2023-04-09T11:11:02.310Z,98874.00
2023-04-09T11:13:31.097Z,98869.13
2023-04-09T11:16:00.274Z,98869.28
2023-04-09T11:18:30.758Z,98873.44
2023-04-09T11:21:02.350Z,98873.41
2023-04-09T11:23:29.454Z,98876.31
2023-04-09T11:25:56.577Z,98871.97
2023-04-09T11:28:24.130Z,98872.19
2023-04-09T11:30:52.078Z,98867.16
2023-04-09T11:33:20.200Z,98875.97
2023-04-09T11:35:48.338Z,98879.25
2023-04-09T11:38:15.685Z,98875.84
2023-04-09T11:40:48.083Z,98875.34
2023-04-09T11:43:16.884Z,98879.97
2023-04-09T11:45:44.935Z,98875.81
2023-04-09T11:48:13.214Z,98883.72
2023-04-09T11:50:40.740Z,98882.09
2023-04-09T11:53:21.625Z,98874.78
2023-04-09T11:55:51.461Z,98882.22
2023-04-09T11:58:18.724Z,98873.59
2023-04-09T12:00:45.794Z,98880.41
2023-04-09T12:03:13.598Z,98881.81
2023-04-09T12:05:50.811Z,98886.31
2023-04-09T12:08:23.824Z,98885.25
2023-04-09T12:10:53.655Z,98882.47
2023-04-09T12:13:21.609Z,98876.56
2023-04-09T12:15:50.121Z,98877.28
2023-04-09T12:18:16.920Z,98878.81
2023-04-09T12:20:46.608Z,98880.84
2023-04-09T12:23:13.855Z,98873.84
2023-04-09T12:25:42.972Z,98872.50
2023-04-09T12:28:13.023Z,98879.03
2023-04-09T12:30:40.707Z,98869.72
2023-04-09T12:33:10.206Z,98877.56
2023-04-09T12:35:39.557Z,98880.81
2023-04-09T12:38:07.382Z,98874.56
2023-04-09T12:40:35.652Z,98872.56
2023-04-09T12:43:03.162Z,98874.13
2023-04-09T12:45:30.539Z,98873.03
2023-04-09T12:47:58.361Z,98867.81
2023-04-09T12:50:26.008Z,98870.66
2023-04-09T12:52:54.065Z,98869.28
2023-04-09T12:55:22.216Z,98859.31
2023-04-09T12:57:50.901Z,98860.56
2023-04-09T13:00:18.652Z,98873.03
2023-04-09T13:02:45.837Z,98863.69
2023-04-09T13:05:13.484Z,98868.97
2023-04-09T13:07:43.233Z,98861.63
2023-04-09T13:10:11.499Z,98859.47
2023-04-09T13:12:38.786Z,98853.31
2023-04-09T13:15:06.862Z,98854.97
2023-04-09T13:17:33.913Z,98863.50
2023-04-09T13:20:01.722Z,98857.22
2023-04-09T13:22:28.863Z,98862.28
2023-04-09T13:24:55.795Z,98848.88
2023-04-09T13:27:23.010Z,98853.66
2023-04-09T13:29:50.841Z,98852.72
2023-04-09T13:32:19.007Z,98849.84
2023-04-09T13:34:46.728Z,98858.41
2023-04-09T13:37:14.066Z,98851.94
2023-04-09T13:39:41.086Z,98845.59
2023-04-09T13:42:13.562Z,98854.53
2023-04-09T13:44:44.772Z,98854.84
2023-04-09T13:47:13.641Z,98844.28
2023-04-09T13:49:43.916Z,98846.63
2023-04-09T13:52:11.976Z,98857.63
2023-04-09T13:54:38.798Z,98855.16
2023-04-09T13:57:08.685Z,98860.50
2023-04-09T13:59:36.589Z,98859.13
2023-04-09T14:02:04.233Z,98856.16
2023-04-09T14:04:31.683Z,98854.19
2023-04-09T14:06:58.477Z,98859.34
2023-04-09T14:09:25.574Z,98850.22
2023-04-09T14:11:54.334Z,98849.63
2023-04-09T14:14:21.570Z,98852.88
2023-04-09T14:16:48.597Z,98859.34
2023-04-09T14:19:15.862Z,98851.91
2023-04-09T14:21:42.740Z,98849.84
2023-04-09T14:24:09.847Z,98849.00
2023-04-09T14:26:37.643Z,98843.97
2023-04-09T14:29:04.579Z,98844.47
2023-04-09T14:31:31.710Z,98849.72
2023-04-09T14:33:58.762Z,98848.44
2023-04-09T14:36:27.474Z,98845.19
2023-04-09T14:38:56.240Z,98839.88
2023-04-09T14:41:24.811Z,98844.09
2023-04-09T14:43:51.530Z,98844.06
2023-04-09T14:46:18.277Z,98842.88
2023-04-09T14:48:45.993Z,98843.34
2023-04-09T14:51:13.190Z,98846.06
2023-04-09T14:53:40.060Z,98842.13
2023-04-09T14:56:07.274Z,98841.63
2023-04-09T14:58:34.205Z,98837.03
2023-04-09T15:01:01.214Z,98836.84
2023-04-09T15:03:28.470Z,98834.66
2023-04-09T15:05:55.750Z,98834.91
2023-04-09T15:08:23.715Z,98832.63
2023-04-09T15:10:51.288Z,98833.34
2023-04-09T15:13:18.124Z,98832.31
2023-04-09T15:15:45.428Z,98832.19
2023-04-09T15:18:13.030Z,98827.56
2023-04-09T15:20:41.850Z,98825.84
2023-04-09T15:23:09.782Z,98832.91
2023-04-09T15:25:37.555Z,98834.81
2023-04-09T15:28:06.240Z,98838.81
2023-04-09T15:30:33.432Z,98831.22
2023-04-09T15:33:01.643Z,98840.56
2023-04-09T15:35:29.499Z,98823.47
2023-04-09T15:37:57.282Z,98823.59
2023-04-09T15:40:24.484Z,98823.72
2023-04-09T15:42:51.522Z,98831.72
2023-04-09T15:45:18.599Z,98833.44
2023-04-09T15:47:46.167Z,98825.41
2023-04-09T15:50:22.682Z,98831.41
2023-04-09T15:52:50.622Z,98827.13
2023-04-09T15:55:17.776Z,98823.03
2023-04-09T15:57:47.337Z,98822.03
2023-04-09T16:00:15.703Z,98827.88
2023-04-09T16:02:47.399Z,98823.06
2023-04-09T16:05:15.644Z,98823.00
2023-04-09T16:07:42.968Z,98836.34
2023-04-09T16:10:11.181Z,98831.41
2023-04-09T16:12:38.440Z,98833.97
2023-04-09T16:15:06.065Z,98835.88
2023-04-09T16:17:40.295Z,98833.41
2023-04-09T16:20:08.553Z,98828.72
2023-04-09T16:22:45.033Z,98834.22
2023-04-09T16:25:12.944Z,98835.84
2023-04-09T16:27:40.915Z,98842.16
2023-04-09T16:30:08.088Z,98834.72
2023-04-09T16:32:35.006Z,98830.41
2023-04-09T16:35:02.471Z,98829.69
2023-04-09T16:37:31.236Z,98831.78
2023-04-09T16:39:58.141Z,98831.47
2023-04-09T16:42:27.704Z,98827.59
2023-04-09T16:44:54.843Z,98826.03
2023-04-09T16:47:22.392Z,98825.31
2023-04-09T16:49:49.136Z,98828.28
2023-04-09T16:52:16.461Z,98833.13
2023-04-09T16:54:43.419Z,98832.31
2023-04-09T16:57:10.362Z,98833.66
2023-04-09T16:59:37.605Z,98827.47
2023-04-09T17:02:04.779Z,98826.28
2023-04-09T17:04:34.350Z,98831.09
2023-04-09T17:07:01.731Z,98821.06
2023-04-09T17:09:28.566Z,98831.84
2023-04-09T17:11:56.638Z,98829.09
2023-04-09T17:14:23.954Z,98831.22
2023-04-09T17:16:53.130Z,98825.50
2023-04-09T17:19:20.102Z,98836.28
2023-04-09T17:21:47.027Z,98838.44
2023-04-09T17:24:13.941Z,98827.59
2023-04-09T17:26:40.836Z,98834.88
2023-04-09T17:29:07.752Z,98846.03
2023-04-09T17:31:34.680Z,98849.41
2023-04-09T17:34:02.213Z,98853.06
2023-04-09T17:36:29.385Z,98848.94
2023-04-09T17:38:56.740Z,98848.34
2023-04-09T17:41:24.404Z,98852.00
2023-04-09T17:43:51.576Z,98851.06
2023-04-09T17:46:18.516Z,98847.91
2023-04-09T17:48:45.538Z,98856.63
2023-04-09T17:51:19.662Z,98856.75
2023-04-09T17:53:47.493Z,98858.44
2023-04-09T17:56:16.886Z,98867.75
2023-04-09T17:58:44.400Z,98872.06
2023-04-09T18:01:13.633Z,98879.59
2023-04-09T18:03:42.718Z,98883.78
2023-04-09T18:06:10.041Z,98889.00
2023-04-09T18:08:37.763Z,98891.13
2023-04-09T18:11:12.618Z,98882.00
2023-04-09T18:13:40.447Z,98893.22
2023-04-09T18:16:12.380Z,98896.97
2023-04-09T18:18:39.563Z,98901.09
2023-04-09T18:21:07.202Z,98897.13
2023-04-09T18:23:34.752Z,98887.72
2023-04-09T18:26:03.140Z,98896.75
2023-04-09T18:28:30.309Z,98899.44
2023-04-09T18:30:57.848Z,98894.09
2023-04-09T18:33:25.919Z,98909.66
2023-04-09T18:35:53.203Z,98902.44
2023-04-09T18:38:21.887Z,98905.81
2023-04-09T18:40:48.717Z,98906.09
2023-04-09T18:43:15.605Z,98906.38
2023-04-09T18:45:42.604Z,98904.66
2023-04-09T18:48:10.005Z,98906.28
2023-04-09T18:50:37.128Z,98906.34
2023-04-09T18:53:06.068Z,98910.75
2023-04-09T18:55:37.861Z,98903.28
2023-04-09T18:58:08.755Z,98912.53
2023-04-09T19:00:36.289Z,98901.56
2023-04-09T19:03:03.415Z,98908.25
2023-04-09T19:05:31.852Z,98900.16
2023-04-09T19:08:03.271Z,98901.97
2023-04-09T19:10:30.340Z,98898.47
2023-04-09T19:12:57.088Z,98899.53
2023-04-09T19:15:26.405Z,98890.41
2023-04-09T19:17:53.826Z,98895.56
2023-04-09T19:20:22.144Z,98892.66
2023-04-09T19:22:50.412Z,98894.31
2023-04-09T19:25:18.474Z,98892.03
2023-04-09T19:27:45.721Z,98896.25
2023-04-09T19:30:13.252Z,98893.72
2023-04-09T19:32:41.781Z,98898.59
2023-04-09T19:35:08.842Z,98894.59
2023-04-09T19:37:36.173Z,98903.03
2023-04-09T19:40:04.699Z,98897.13
2023-04-09T19:42:35.330Z,98890.06
2023-04-09T19:45:02.521Z,98885.69
2023-04-09T19:47:29.757Z,98881.59
2023-04-09T19:49:56.570Z,98894.94
2023-04-09T19:52:23.563Z,98889.28
2023-04-09T19:54:54.791Z,98889.63
2023-04-09T19:57:22.085Z,98892.56
2023-04-09T19:59:49.969Z,98892.44
2023-04-09T20:02:17.298Z,98898.03
2023-04-09T20:04:48.017Z,98887.09
2023-04-09T20:07:15.702Z,98893.69
2023-04-09T20:09:43.610Z,98895.44
2023-04-09T20:12:10.777Z,98888.88
2023-04-09T20:14:40.853Z,98891.31
2023-04-09T20:17:09.790Z,98880.97
2023-04-09T20:19:37.947Z,98879.28
2023-04-09T20:22:05.019Z,98887.00
2023-04-09T20:24:32.355Z,98887.13
2023-04-09T20:26:59.690Z,98894.88
2023-04-09T20:29:26.690Z,98884.63
2023-04-09T20:31:53.696Z,98882.72
2023-04-09T20:34:26.597Z,98883.78
2023-04-09T20:36:54.821Z,98888.19
2023-04-09T20:39:22.351Z,98897.75
2023-04-09T20:41:49.384Z,98898.59
2023-04-09T20:44:16.689Z,98884.47
2023-04-09T20:46:43.519Z,98895.63
2023-04-09T20:49:11.206Z,98890.41
2023-04-09T20:51:38.624Z,98893.63
2023-04-09T20:54:05.605Z,98900.63
2023-04-09T20:56:32.830Z,98889.47
2023-04-09T20:59:00.164Z,98891.16
2023-04-09T21:01:27.776Z,98899.56
2023-04-09T21:03:55.040Z,98898.72
2023-04-09T21:06:22.692Z,98892.56
2023-04-09T21:08:49.750Z,98893.63
2023-04-09T21:11:16.759Z,98898.38
2023-04-09T21:13:53.592Z,98902.09
2023-04-09T21:16:21.868Z,98905.19
2023-04-09T21:18:49.037Z,98906.75
2023-04-09T21:21:16.072Z,98897.16
2023-04-09T21:23:43.497Z,98904.31
2023-04-09T21:26:11.526Z,98900.75
2023-04-09T21:28:39.278Z,98901.44
2023-04-09T21:31:06.518Z,98897.69
2023-04-09T21:33:33.813Z,98909.34
2023-04-09T21:36:01.591Z,98901.09
2023-04-09T21:38:28.412Z,98914.31
2023-04-09T21:40:55.468Z,98902.19
2023-04-09T21:43:22.229Z,98905.06
2023-04-09T21:45:49.199Z,98906.22
2023-04-09T21:48:16.200Z,98904.41
2023-04-09T21:50:42.962Z,98904.72
2023-04-09T21:53:09.800Z,98906.53
2023-04-09T21:55:37.206Z,98904.63
2023-04-09T21:58:03.994Z,98913.22
2023-04-09T22:00:31.358Z,98905.38
2023-04-09T22:03:02.148Z,98905.16
2023-04-09T22:05:29.740Z,98912.59
2023-04-09T22:07:56.497Z,98905.78
2023-04-09T22:10:23.487Z,98911.66
2023-04-09T22:12:50.658Z,98920.56
2023-04-09T22:15:17.562Z,98921.31
2023-04-09T22:17:44.471Z,98916.41
2023-04-09T22:20:11.424Z,98919.63
2023-04-09T22:22:38.579Z,98922.16
2023-04-09T22:25:07.080Z,98917.59
2023-04-09T22:27:34.196Z,98919.31
2023-04-09T22:30:01.033Z,98921.88
2023-04-09T22:32:28.887Z,98923.00
2023-04-09T22:34:55.690Z,98918.97
2023-04-09T22:37:22.407Z,98921.31
2023-04-09T22:39:49.268Z,98926.94
2023-04-09T22:42:16.187Z,98918.25
2023-04-09T22:44:42.880Z,98920.91
2023-04-09T22:47:09.556Z,98924.84
2023-04-09T22:49:36.517Z,98918.03
2023-04-09T22:52:03.310Z,98931.53
2023-04-09T22:54:30.170Z,98921.13
2023-04-09T22:56:57.872Z,98924.81
2023-04-09T22:59:30.475Z,98921.63
2023-04-09T23:02:06.050Z,98916.88
2023-04-09T23:04:34.190Z,98921.75
2023-04-09T23:07:01.106Z,98932.13
2023-04-09T23:09:28.035Z,98927.91
2023-04-09T23:11:54.790Z,98934.38
2023-04-09T23:14:21.563Z,98931.75
2023-04-09T23:16:48.123Z,98934.50
2023-04-09T23:19:15.010Z,98922.19
2023-04-09T23:21:41.724Z,98916.66
2023-04-09T23:24:08.846Z,98911.88
2023-04-09T23:26:35.635Z,98916.78
2023-04-09T23:29:02.413Z,98913.16
2023-04-09T23:31:29.154Z,98911.16
2023-04-09T23:33:56.270Z,98911.16
2023-04-09T23:36:24.355Z,98912.63
2023-04-09T23:38:51.447Z,98914.75
2023-04-09T23:41:18.146Z,98904.75
2023-04-09T23:43:44.860Z,98918.97
2023-04-09T23:46:11.494Z,98923.22
2023-04-09T23:48:38.262Z,98917.91
2023-04-09T23:51:05.285Z,98909.44
2023-04-09T23:53:32.082Z,98917.28
2023-04-09T23:55:58.798Z,98908.69
2023-04-09T23:58:25.546Z,98914.00
